Terminal Aerodrome Forecast
Issued by NWS

Home | Current Version | Previous Version | Text Only | Print | Product List | Glossary On
Versions: 1 2 3 4 5 6 7 8 9 10 11 12 13 14 15 16 17 18 19 20 21 22 23 24 25 26 27 28
000
FTUS45 KRIW 162323
TAFCOD
TAF
KCOD 162323Z 1700/1724 32010G16KT P6SM VCTS SCT040 BKN080CB
      TEMPO 1700/1704 -RA FEW030
     FM170600 02005KT P6SM BKN120
     FM171200 VRB06KT P6SM OVC120
     FM171800 09008G18KT P6SM VCTS SCT090CB
     AMD LTD TO CLD VIS AND WIND=

USA.gov is the U.S. government's official web portal to all federal, state and local government web resources and services.